Sonic Adventure (DX): Time Rankings

Records: Times | Rings | Scores | Races | Bosses | Freestyle
Leaders: Times | Rings | Scores | Races | Bosses | Freestyle | Overall
Rank Player Percent Points Date
1 Sonicspeedruner 99.0% 47 01-27-15
2 Gamepro011 98.4% 77 01-27-15
3 Jawzun 96.3% 186 01-27-15
4 Dashjump 94.3% 284 01-27-15
5 DarkPolarNight 93.8% 309 01-27-15
6 THC98 92.1% 394 01-27-15
7 F-Man 92.1% 395 01-27-15
8 ike6252 91.0% 450 01-27-15
9 Avento128bits 90.7% 466 01-27-15
10 francisco 90.6% 471 01-27-15
11 DarkspinesSonic 90.3% 489 01-27-15
12 Marth 90.0% 502 01-27-15
13 frankoredstrato 89.0% 554 01-27-15
14 Paragod 85.8% 716 01-27-15
15 HyperSonic7701 85.7% 719 01-27-15
16 chainchumper 84.8% 766 01-27-15
17 InferSaime 83.0% 854 01-27-15
18 Stefan 81.6% 927 01-27-15
19 Redd 80.9% 962 01-27-15
20 PfoSonic 80.6% 974 01-27-15
21 drminus 79.1% 1050 01-27-15
22 bertin 79.0% 1058 01-27-15
23 yoshifan 78.6% 1077 01-27-15
24 SonicDash1999 78.1% 1101 01-27-15
25 Coolfansonic 77.8% 1120 01-27-15
26 Dave Cramer 76.8% 1168 01-27-15
27 RPGnutter 76.6% 1179 01-27-15
28 sonicam 74.7% 1274 01-27-15
29 Cybrax 74.6% 1279 01-27-15
30 Ring Rush 72.2% 1401 01-27-15
31 mike89 71.1% 1454 01-27-15
32 NintenDan 71.0% 1462 01-27-15
33 SkyLights 67.2% 1652 01-27-15
34 Combo 65.6% 1734 01-27-15
35 SADXTryHard 63.1% 1857 01-27-15
36 P1 Pause 62.8% 1873 01-27-15
37 Groudon199 60.7% 1979 01-27-15
38 Shadow Jacky 59.9% 2019 01-27-15
39 Dawid8404 59.8% 2024 01-27-15
40 VMU Player Banned 58.8% 2077 01-27-15
41 Thorn 58.7% 2080 01-27-15
42 SB737 57.5% 2140 01-27-15
43 The Knuckles Chao 57.4% 2147 01-27-15
44 Chao_Fan 57.1% 2163 01-27-15
45 SadisticMystic 56.9% 2173 01-27-15
46 Nimrod 56.4% 2199 01-27-15
47 Parax 56.2% 2207 01-27-15
48 Mastakirby 56.2% 2209 01-27-15
49 OmegaDJ 56.0% 2216 01-27-15
50 mauserman 55.8% 2230 01-27-15
51 Psyknux 55.7% 2235 01-27-15
52 Auriman1 55.2% 2259 01-27-15
53 magnum12 55.2% 2260 01-27-15
54 KinkyCadence 54.6% 2290 01-27-15
55 Turbos 54.4% 2296 01-27-15
56 GerbilSoft 54.2% 2311 01-27-15
57 GreatStar 53.9% 2326 01-27-15
58 Webber3000 53.0% 2367 01-27-15
59 Hipertails12 52.1% 2415 01-27-15
60 James_Bertolli 49.9% 2527 01-27-15
61 Cream147 49.5% 2547 01-27-15
62 Skylace 49.0% 2572 01-27-15
63 welldooder64 48.9% 2575 01-27-15
64 Diamond 48.8% 2583 01-27-15
65 Omega Rafael Santos 48.5% 2596 01-27-15
66 Quartz 48.4% 2599 01-27-15
67 Psymar 48.1% 2614 01-27-15
68 teamblackarms 46.9% 2676 01-27-15
69 buddychaos0415 46.4% 2703 01-27-15
70 SilverSonic 46.1% 2718 01-27-15
71 Andrea Ritsu 45.3% 2760 01-27-15
72 SonicWinDX 45.1% 2766 01-27-15
73 SilvertheAlmighty 45.0% 2774 01-27-15
74 itsPersonnal 44.9% 2779 01-27-15
75 metanightmare22 44.0% 2821 01-27-15
76 lordmetalsonic 42.0% 2922 01-27-15
77 Arch 41.5% 2951 01-27-15
78 Termon 40.9% 2978 01-27-15
79 videogamemaster777 40.8% 2985 01-27-15
80 supersonicfan 40.3% 3012 01-27-15
81 Kanimayo_Jp 39.7% 3040 01-27-15
82 LilZero 39.2% 3064 01-27-15
83 paulie9990 38.9% 3081 01-27-15
84 FuzZerd 38.9% 3082 01-27-15
85 eggFL 38.4% 3107 01-27-15
86 Don 37.8% 3136 01-27-15
87 Siavash Tazari 36.9% 3180 01-27-15
88 Fr3nZy 36.8% 3189 01-27-15
89 f0rever_zer0 35.8% 3239 01-27-15
90 Cod4Scopes 35.6% 3248 01-27-15
91 Cyan Ryan 35.0% 3275 01-27-15
92 supersonic465 34.9% 3283 01-27-15
93 LinksDarkArrows 34.8% 3289 01-27-15
94 Austinf 34.2% 3317 01-27-15
95 danieldude 34.0% 3328 01-27-15
96 elecmouse101 33.8% 3339 01-27-15
97 Therio 33.6% 3348 01-27-15
98 Staf 33.6% 3350 01-27-15
99 MiStEr_ShAoLiN 33.3% 3362 01-27-15
100 BrokenArthritis 32.9% 3385 01-27-15
101 Xia 32.3% 3412 01-27-15
102 welshmoose05 31.7% 3442 01-27-15
103 The Great Lord Mick 30.6% 3500 01-27-15
104 Mcshuggets 30.4% 3509 01-27-15
105 Maxinfamily 30.2% 3521 01-27-15
106 Aitamen 30.0% 3530 01-27-15
107 videogamer1014 29.9% 3534 01-27-15
108 Matt_TY 29.8% 3542 01-27-15
109 joecoolgames 29.6% 3548 01-27-15
110 dabestgamer 29.5% 3553 01-27-15
111 imazor017 29.1% 3575 01-27-15
112 SuperSonic101 28.3% 3617 01-27-15
113 superjupi 28.2% 3620 01-27-15
114 Shadowthegreat 28.2% 3623 01-27-15
115 Rolken 27.6% 3650 01-27-15
116 Hunters13 27.5% 3657 01-27-15
117 SaviourDC 27.1% 3674 01-27-15
118 iarebored 27.1% 3678 01-27-15
119 sonamyfan666 26.9% 3685 01-27-15
120 Spinballwizard 26.8% 3690 01-27-15
121 SonicKnuckles 26.5% 3706 01-27-15
122 EngiNerd 25.7% 3749 01-27-15
123 adf 25.5% 3759 01-27-15
124 Megaman EXE565 25.0% 3783 01-27-15
125 The T 24.4% 3812 01-27-15
126 Platformer 23.8% 3841 01-27-15
126 Sonic Singularity 23.8% 3841 01-27-15
128 Pokemonmaster888 23.7% 3848 01-27-15
129 SeaWolf 23.6% 3854 01-27-15
130 timpkmn89 23.2% 3871 01-27-15
131 Swift Hobo 23.0% 3883 01-27-15
132 Sondow 22.5% 3906 01-27-15
133 Rickyman48 22.5% 3910 01-27-15
134 FoxBoy 21.8% 3941 01-27-15
134 KitsuneYamaro 21.8% 3941 01-27-15
136 TFEC Headshot 21.6% 3956 01-27-15
137 Kogen Player Banned 21.3% 3971 01-27-15
138 Starlight Sable 20.3% 4020 01-27-15
139 IsisDazs 19.9% 4037 01-27-15
140 HyperSonic64 19.9% 4038 01-27-15
141 crazy1993 19.4% 4066 01-27-15
142 andres430 19.1% 4078 01-27-15
143 SonicAD 17.9% 4140 01-27-15
144 MPit08 17.8% 4143 01-27-15
145 sonicd5 17.6% 4155 01-27-15
146 iSonicKid2K 17.2% 4176 01-27-15
147 dShadow 17.2% 4177 01-27-15
148 Cutiefox 16.5% 4212 01-27-15
149 Chawkk 16.5% 4213 01-27-15
150 BigAL49 16.4% 4214 01-27-15
151 Miles9999 16.3% 4222 01-27-15
152 Monkeh 16.0% 4234 01-27-15
153 DaDude 15.8% 4246 01-27-15
154 Drflash55 15.5% 4261 01-27-15
155 Bass 15.0% 4286 01-27-15
156 neaolas 14.9% 4294 01-27-15
157 Cruizer 14.7% 4303 01-27-15
158 superiorsonic 14.7% 4304 01-27-15
159 UninspiredUsername 14.5% 4311 01-27-15
160 zapp 14.5% 4313 01-27-15
161 gamefreak1292 14.1% 4331 01-27-15
162 Cooljay 13.6% 4358 01-27-15
163 SonicU260 13.2% 4375 01-27-15
164 Chaos_Overlord 13.2% 4376 01-27-15
165 Valfore 12.7% 4404 01-27-15
166 GarnetPrincess 12.4% 4416 01-27-15
167 soniccoloursunleashed 12.1% 4431 01-27-15
168 ShinigamiMachine 12.1% 4435 01-27-15
169 Sonicsuperstar1 11.7% 4452 01-27-15
170 FocusSight64 11.3% 4474 01-27-15
171 booo95 11.2% 4478 01-27-15
172 SirTobbii 11.2% 4479 01-27-15
173 Werey 11.0% 4487 01-27-15
174 Mo Player Banned 10.8% 4500 01-27-15
175 sonicspeed 10.7% 4503 01-27-15
176 Venick409 9.9% 4542 01-27-15
177 Sithwarrior26 9.8% 4549 01-27-15
178 ingx24 9.4% 4570 01-27-15
179 CyberShadow 9.2% 4577 01-27-15
180 Fozer 8.9% 4592 01-27-15
181 Colomb_30 8.8% 4600 01-27-15
182 Regano1000 8.5% 4614 01-27-15
183 1stKirbyever 8.2% 4628 01-27-15
184 nuckrieg 7.9% 4647 01-27-15
185 Brian_pso 7.8% 4651 01-27-15
186 douglas 7.7% 4657 01-27-15
187 TakaRikka 7.6% 4662 01-27-15
187 Th4tN1nj4Turtl3 7.6% 4662 01-27-15
189 Zip 7.5% 4663 01-27-15
190 Mariosonic15 7.2% 4679 01-27-15
191 wheatrich 7.1% 4684 01-27-15
192 ieatatsonic 6.9% 4696 01-27-15
193 MStitomix 6.8% 4699 01-27-15
194 HermitHelmet 6.8% 4700 01-27-15
195 niscool 6.6% 4710 01-27-15
196 Triseena 6.5% 4714 01-27-15
197 Got4n 6.5% 4715 01-27-15
198 Cort_pso 6.4% 4720 01-27-15
199 Jose_15 6.2% 4730 01-27-15
200 a_moustache 6.1% 4735 01-27-15
201 Artie 6.0% 4739 01-27-15
202 BlankTH 6.0% 4741 01-27-15
203 Ace747 5.7% 4758 01-27-15
204 Richied 5.6% 4760 01-27-15
205 Paixii 5.3% 4776 01-27-15
206 slade23 5.0% 4789 01-27-15
207 BallzeH 5.0% 4790 01-27-15
208 ArcticDragon 4.9% 4794 01-27-15
209 FSSRandomvids 4.9% 4795 01-27-15
209 Mankster101 4.9% 4795 01-27-15
211 BecauseWarAnvil 4.9% 4796 01-27-15
212 PsyBorg 4.9% 4798 01-27-15
213 Jamixesa 4.8% 4800 01-27-15
214 Nickson98 4.7% 4806 01-27-15
215 Crydio 4.6% 4811 01-27-15
216 TheUltraBlur 4.5% 4816 01-27-15
217 ReuelBrony 4.4% 4819 01-27-15
218 stanski 4.3% 4827 01-27-15
219 tal39h 4.3% 4829 01-27-15
220 knuckles_sonic8 4.1% 4839 01-27-15
221 p0ker 4.0% 4840 01-27-15
222 Blue Infamy 4.0% 4842 01-27-15
223 ErrortheCucco 3.8% 4852 01-27-15
224 Rikum22 3.7% 4855 01-27-15
225 TheChaosEmeraIds 3.6% 4860 01-27-15
226 sonic1001 3.6% 4863 01-27-15
227 AJSIV 3.4% 4870 01-27-15
227 syco1098 3.4% 4870 01-27-15
229 Sonic the Hedgehod16 3.4% 4871 01-27-15
230 Calfd 3.3% 4878 01-27-15
231 themachoman202 3.0% 4893 01-27-15
232 MK 3.0% 4894 01-27-15
233 Fivavoa 2.8% 4900 01-27-15
234 BlackArmsShadow 2.8% 4902 01-27-15
235 Mr. Jones 2.8% 4903 01-27-15
235 ptorflaxendrosis 2.8% 4903 01-27-15
237 djmat 2.8% 4904 01-27-15
238 arcfx1985 2.7% 4905 01-27-15
239 Sonique Hedgehog 2.7% 4907 01-27-15
240 FlandreScarlet9999vr 2.7% 4909 01-27-15
241 KaM Mark MaK 2.5% 4917 01-27-15
242 BeeAwwb 2.5% 4919 01-27-15
243 ShadouZaHejjihoggu 2.4% 4924 01-27-15
244 darkstarblaze 2.2% 4932 01-27-15
245 darkersupershadic 2.2% 4933 01-27-15
246 SpiritDragon1995 2.2% 4934 01-27-15
247 sonic29887 2.1% 4936 01-27-15
248 Sarger001 2.1% 4938 01-27-15
249 Grady219 2.1% 4939 01-27-15
250 Jawaah 2.0% 4943 01-27-15
251 shadowblast63 Player Banned 2.0% 4944 01-27-15
252 Antek 1.9% 4947 01-27-15
253 Klaus 1.9% 4949 01-27-15
254 BioShadow 1.8% 4954 01-27-15
255 SkyBon 1.5% 4968 01-27-15
256 Shanekilz 1.5% 4970 01-27-15
257 isaihtb11 1.4% 4974 01-27-15
258 OhNoes! 1.4% 4975 01-27-15
259 zaktu40 1.3% 4977 01-27-15
260 gaara1234 1.3% 4980 01-27-15
261 MastaToken 1.1% 4987 01-27-15
262 Mister_Slick 1.0% 4991 01-27-15
263 Sonic06Fan 1.0% 4993 01-27-15
264 Rush Hero 1.0% 4994 01-27-15
265 SonicMega167 0.9% 4997 01-27-15
266 gamed00d 0.9% 5000 01-27-15
266 SilverK 0.9% 5000 01-27-15
268 oTaiIilLsS 0.8% 5002 01-27-15
269 Egor305 0.7% 5009 01-27-15
270 Burningskull123 0.5% 5016 01-27-15
271 Heroes_Hater 0.5% 5018 01-27-15
272 Sonicontherun 0.3% 5026 01-27-15
273 antiwwe 0.2% 5032 01-27-15
274 Iwannabelink 0.2% 5035 01-27-15
275 Genuine Hedgehog 0.1% 5036 01-27-15
276 dragondragon18 0.1% 5039 01-27-15
277 SonicK100 0.1% 5040 01-27-15
278 Tyrouble 0.0% 5045 01-27-15
279 LancexExWx 0.0% 5046 01-27-15
279 neji_hyuuga 0.0% 5046 01-27-15
279 Over 0.0% 5046 01-27-15
279 sdj6707 Player Banned 0.0% 5046 01-27-15
279 Tran Sonic Fan Player Banned 0.0% 5046 01-27-15

This page is using the New Data Table System. [FUTURE]

Game ID: 3 | Category ID: 1
Hits: 7,010 | Hits This Month: 70 | DB Calls: 24 | Mem Usage: 5.43 MB | Time: 0.15s | Printable

The Sonic Center v3.9
Copyright 2003-2011 by The Sonic Center Team.